TOM8DY EGGD-LERS
Flight info
| Callsign | TOM8DY |
|---|---|
| Flight time | N/A |
| Altitude | 31000 |
| Route | EXMOR N92 DAWLY N864 ABBEW/N0469F330 N864 BHD/N0472F320 DCT SALCO/N0469F330 DCT NOVAN DCT NENEM DCT BADRU P152 PPN/N0472F320 P152 RONKO M601 SURCO/N0470F330 DCT MARIO/N0472F320 M601 POSSY |
| Aircraft | B752/M-SDE3FGHIM3RWXY/LB1 |
Departure
| Time | N/A |
|---|---|
| Airport | Bristol Airport (EGGD) |
Arrival
| Time | 2026-04-24 19:12 |
|---|---|
| Airport | Reus Airport (LERS) |
| Time | Latitude | Longitude | Altitude | Speed | Heading |
|---|---|---|---|---|---|
| 2026-04-24 16:54 | 51.38544 | -2.71595 | 599 ft | 0 kts | 356° |
| 2026-04-24 17:06 | 51.38540 | -2.71594 | 599 ft | 3 kts | 358° |
| 2026-04-24 17:06 | 51.38509 | -2.71592 | 599 ft | 2 kts | 356° |
| 2026-04-24 17:06 | 51.38495 | -2.71591 | 599 ft | 2 kts | 356° |
| 2026-04-24 17:07 | 51.38485 | -2.71590 | 600 ft | 2 kts | 356° |
| 2026-04-24 17:07 | 51.38464 | -2.71585 | 600 ft | 2 kts | 338° |
| 2026-04-24 17:07 | 51.38443 | -2.71554 | 600 ft | 2 kts | 289° |
| 2026-04-24 17:08 | 51.38443 | -2.71507 | 600 ft | 2 kts | 266° |
| 2026-04-24 17:08 | 51.38443 | -2.71498 | 600 ft | 0 kts | 267° |
| 2026-04-24 17:10 | 51.38430 | -2.71925 | 604 ft | 20 kts | 271° |
| 2026-04-24 17:11 | 51.38412 | -2.72524 | 613 ft | 15 kts | 266° |
| 2026-04-24 17:12 | 51.38280 | -2.73341 | 607 ft | 13 kts | 177° |
| 2026-04-24 18:54 | 41.90256 | 0.31133 | 16694 ft | 348 kts | 144° |
| 2026-04-24 18:55 | 41.86318 | 0.34948 | 15806 ft | 344 kts | 144° |
| 2026-04-24 18:55 | 41.84402 | 0.36803 | 15380 ft | 343 kts | 144° |
| 2026-04-24 18:55 | 41.82453 | 0.38686 | 14936 ft | 342 kts | 144° |
| 2026-04-24 18:56 | 41.80522 | 0.40551 | 14505 ft | 341 kts | 143° |
| 2026-04-24 18:56 | 41.78616 | 0.42362 | 14064 ft | 340 kts | 147° |
| 2026-04-24 18:56 | 41.76514 | 0.43757 | 13767 ft | 337 kts | 155° |
| 2026-04-24 18:56 | 41.74381 | 0.45067 | 13485 ft | 339 kts | 154° |
| 2026-04-24 18:57 | 41.72234 | 0.46452 | 13192 ft | 338 kts | 153° |
| 2026-04-24 18:57 | 41.70155 | 0.47813 | 12907 ft | 335 kts | 153° |
| 2026-04-24 18:57 | 41.68042 | 0.49209 | 12617 ft | 333 kts | 153° |
| 2026-04-24 18:57 | 41.65964 | 0.50589 | 12330 ft | 332 kts | 153° |
| 2026-04-24 18:58 | 41.63916 | 0.51953 | 12050 ft | 331 kts | 153° |
| 2026-04-24 18:58 | 41.61855 | 0.53326 | 11771 ft | 329 kts | 153° |
| 2026-04-24 18:58 | 41.59819 | 0.54683 | 11506 ft | 328 kts | 153° |
| 2026-04-24 18:58 | 41.57758 | 0.56057 | 11222 ft | 327 kts | 153° |
| 2026-04-24 18:59 | 41.55721 | 0.57413 | 10944 ft | 326 kts | 153° |
| 2026-04-24 18:59 | 41.53707 | 0.58754 | 10669 ft | 325 kts | 153° |
| 2026-04-24 18:59 | 41.51687 | 0.60097 | 10403 ft | 323 kts | 153° |
| 2026-04-24 18:59 | 41.49704 | 0.61415 | 10129 ft | 316 kts | 153° |
| 2026-04-24 19:00 | 41.47734 | 0.62724 | 9863 ft | 308 kts | 153° |
| 2026-04-24 19:00 | 41.45841 | 0.63981 | 9613 ft | 299 kts | 153° |
| 2026-04-24 19:00 | 41.44010 | 0.65195 | 9376 ft | 291 kts | 153° |
| 2026-04-24 19:00 | 41.42221 | 0.66382 | 9157 ft | 284 kts | 153° |
| 2026-04-24 19:01 | 41.40481 | 0.67536 | 8944 ft | 272 kts | 153° |
| 2026-04-24 19:01 | 41.38800 | 0.68649 | 8746 ft | 273 kts | 153° |
| 2026-04-24 19:01 | 41.37069 | 0.69795 | 8562 ft | 280 kts | 153° |
| 2026-04-24 19:01 | 41.35309 | 0.70959 | 8355 ft | 279 kts | 153° |
| 2026-04-24 19:02 | 41.34165 | 0.71715 | 8218 ft | 278 kts | 153° |
| 2026-04-24 19:02 | 41.31852 | 0.73244 | 7943 ft | 277 kts | 153° |
| 2026-04-24 19:02 | 41.30131 | 0.74380 | 7744 ft | 276 kts | 153° |
| 2026-04-24 19:02 | 41.28413 | 0.75514 | 7543 ft | 275 kts | 153° |
| 2026-04-24 19:03 | 41.26708 | 0.76639 | 7340 ft | 274 kts | 153° |
| 2026-04-24 19:03 | 41.24988 | 0.77772 | 7133 ft | 273 kts | 153° |
| 2026-04-24 19:03 | 41.23301 | 0.78884 | 6934 ft | 272 kts | 153° |
| 2026-04-24 19:03 | 41.21606 | 0.80000 | 6706 ft | 272 kts | 153° |
| 2026-04-24 19:04 | 41.19913 | 0.81114 | 6462 ft | 271 kts | 153° |
| 2026-04-24 19:04 | 41.18211 | 0.82232 | 6196 ft | 270 kts | 153° |
| 2026-04-24 19:04 | 41.16533 | 0.83335 | 5925 ft | 268 kts | 153° |
| 2026-04-24 19:04 | 41.14872 | 0.84426 | 5635 ft | 264 kts | 153° |
| 2026-04-24 19:05 | 41.13231 | 0.85503 | 5330 ft | 260 kts | 153° |
| 2026-04-24 19:05 | 41.11661 | 0.86533 | 5009 ft | 243 kts | 153° |
| 2026-04-24 19:05 | 41.10209 | 0.87485 | 4770 ft | 227 kts | 153° |
| 2026-04-24 19:05 | 41.08836 | 0.88384 | 4623 ft | 210 kts | 153° |
| 2026-04-24 19:06 | 41.07584 | 0.89294 | 4265 ft | 208 kts | 141° |
| 2026-04-24 19:06 | 41.06786 | 0.90846 | 3833 ft | 208 kts | 106° |
| 2026-04-24 19:06 | 41.06820 | 0.92755 | 3355 ft | 212 kts | 72° |
| 2026-04-24 19:06 | 41.07435 | 0.94525 | 2995 ft | 209 kts | 65° |
| 2026-04-24 19:07 | 41.08035 | 0.96176 | 2955 ft | 190 kts | 65° |
| 2026-04-24 19:07 | 41.08586 | 0.97686 | 2950 ft | 176 kts | 65° |
| 2026-04-24 19:07 | 41.08952 | 0.98678 | 2908 ft | 180 kts | 65° |
| 2026-04-24 19:07 | 41.09719 | 1.00697 | 2703 ft | 185 kts | 64° |
| 2026-04-24 19:08 | 41.10294 | 1.02203 | 2532 ft | 181 kts | 64° |
| 2026-04-24 19:08 | 41.10863 | 1.03690 | 2353 ft | 181 kts | 64° |
| 2026-04-24 19:08 | 41.11348 | 1.05137 | 2320 ft | 162 kts | 71° |
| 2026-04-24 19:08 | 41.11723 | 1.06450 | 2078 ft | 147 kts | 70° |
| 2026-04-24 19:09 | 41.11901 | 1.07046 | 1913 ft | 144 kts | 69° |
| 2026-04-24 19:09 | 41.12243 | 1.08149 | 1580 ft | 141 kts | 69° |
| 2026-04-24 19:09 | 41.12602 | 1.09318 | 1229 ft | 138 kts | 70° |
| 2026-04-24 19:09 | 41.12952 | 1.10554 | 1020 ft | 149 kts | 70° |
| 2026-04-24 19:10 | 41.13309 | 1.11801 | 786 ft | 143 kts | 69° |
| 2026-04-24 19:10 | 41.13666 | 1.12991 | 607 ft | 133 kts | 70° |
| 2026-04-24 19:10 | 41.13870 | 1.13695 | 511 ft | 138 kts | 70° |
| 2026-04-24 19:10 | 41.13889 | 1.13763 | 505 ft | 138 kts | 70° |
| 2026-04-24 19:11 | 41.13912 | 1.13844 | 498 ft | 138 kts | 70° |
| 2026-04-24 19:11 | 41.14247 | 1.15007 | 330 ft | 131 kts | 70° |
| 2026-04-24 19:11 | 41.14590 | 1.16195 | 256 ft | 139 kts | 70° |
| 2026-04-24 19:12 | 41.14868 | 1.17162 | 244 ft | 79 kts | 68° |
| 2026-04-24 19:12 | 41.15002 | 1.17599 | 244 ft | 16 kts | 36° |
| 2026-04-24 19:12 | 41.15095 | 1.17567 | 244 ft | 11 kts | 338° |
| 2026-04-24 19:12 | 41.15139 | 1.17538 | 244 ft | 5 kts | 305° |
| 2026-04-24 19:13 | 41.15141 | 1.17504 | 244 ft | 7 kts | 254° |
| 2026-04-24 19:13 | 41.15088 | 1.17314 | 244 ft | 19 kts | 248° |
| 2026-04-24 19:13 | 41.15035 | 1.17143 | 244 ft | 20 kts | 247° |
| 2026-04-24 19:13 | 41.14979 | 1.16967 | 244 ft | 20 kts | 246° |
| 2026-04-24 19:14 | 41.14937 | 1.16802 | 244 ft | 18 kts | 249° |
| 2026-04-24 19:14 | 41.14889 | 1.16636 | 244 ft | 19 kts | 249° |